Time;durP1;ratioP1;P1;durP2;ratioP2;P2;SDS_P1;SDS_P2;PMS_P1;PMS_P2;Temp;Humidity;BMP_temperature;BMP_pressure;BME280_temperature;BME280_humidity;BME280_pressure;Samples;Min_cycle;Max_cycle;Signal;HPM_P1;HPM_P2
2023/02/23 00:01:17;;;;;;;;;;;;;;;23.91;30.44;94990.97;5004362;28;1300;-69
2023/02/23 00:03:42;;;;;;;;;;;;;;;23.93;30.65;94988.06;4991829;28;1333;-70
2023/02/23 00:06:08;;;;;;;;;;;;;;;23.92;30.77;94983.75;5006677;28;1225;-69
2023/02/23 00:08:35;;;;;;;;;;;;;;;23.90;30.81;94989.31;5010380;28;1910;-70
2023/02/23 00:11:01;;;;;;;;;;;;;;;23.89;30.77;94993.06;5013822;28;1122;-70
2023/02/23 00:13:27;;;;;;;;;;;;;;;23.87;30.71;94995.13;5003887;28;1368;-70
2023/02/23 00:15:54;;;;;;;;;;;;;;;23.87;31.01;94997.00;5013733;28;1394;-71
2023/02/23 00:18:19;;;;;;;;;;;;;;;23.87;30.92;94994.31;5003076;28;1488;-70
2023/02/23 00:20:55;;;;;;;;;;;;;;;23.88;31.03;94996.78;5012034;28;1175;-70
2023/02/23 00:23:20;;;;;;;;;;;;;;;23.82;31.27;94995.00;5013510;28;1337;-70
2023/02/23 00:25:45;;;;;;;;;;;;;;;23.85;31.41;94999.09;5002125;28;1190;-69
2023/02/23 00:28:10;;;;;;;;;;;;;;;23.81;31.44;95003.28;5006355;28;1984;-69
2023/02/23 00:30:36;;;;;;;;;;;;;;;23.88;31.58;94999.47;4998851;28;1295;-70
2023/02/23 00:33:01;;;;;;;;;;;;;;;23.90;31.90;94999.22;5010892;28;1276;-68
2023/02/23 00:35:27;;;;;;;;;;;;;;;23.80;31.77;94970.31;5011164;28;1367;-68
2023/02/23 00:37:52;;;;;;;;;;;;;;;23.98;31.39;94999.72;5003139;28;1314;-68
2023/02/23 00:40:21;;;;;;;;;;;;;;;23.98;31.71;95002.41;5008407;28;1147;-68
2023/02/23 00:42:48;;;;;;;;;;;;;;;23.93;31.65;94996.09;5012852;28;1551;-69
2023/02/23 00:45:13;;;;;;;;;;;;;;;23.90;31.97;94997.38;5013745;28;1102;-69
2023/02/23 00:47:41;;;;;;;;;;;;;;;23.90;31.98;94996.53;4992333;28;1898;-69
2023/02/23 00:50:06;;;;;;;;;;;;;;;23.91;31.98;94990.97;5012277;28;1280;-69
2023/02/23 00:52:32;;;;;;;;;;;;;;;23.90;31.94;94992.00;5014319;28;1484;-69
2023/02/23 00:54:57;;;;;;;;;;;;;;;23.87;31.97;94999.69;5000558;28;1364;-69
2023/02/23 00:57:22;;;;;;;;;;;;;;;23.92;31.88;95000.63;5010666;28;1405;-69
2023/02/23 00:59:48;;;;;;;;;;;;;;;23.89;32.35;94990.38;4997185;28;1473;-69
2023/02/23 01:02:13;;;;;;;;;;;;;;;23.89;32.36;94995.75;5032126;22;3670;-73
2023/02/23 01:04:38;;;;;;;;;;;;;;;23.86;32.44;94990.03;5052610;28;1368;-71
2023/02/23 01:07:05;;;;;;;;;;;;;;;23.82;32.18;94986.97;5051766;28;1206;-71
2023/02/23 01:09:31;;;;;;;;;;;;;;;23.79;32.83;94990.09;5050014;28;1985;-71
2023/02/23 01:11:56;;;;;;;;;;;;;;;23.82;32.54;94984.28;5043223;28;1328;-72
2023/02/23 01:14:22;;;;;;;;;;;;;;;23.85;32.56;94983.00;5051965;28;1585;-73
2023/02/23 01:16:47;;;;;;;;;;;;;;;23.83;32.54;94991.28;5050971;28;1448;-72
2023/02/23 01:19:12;;;;;;;;;;;;;;;23.83;32.89;94985.94;5051873;28;1214;-73
2023/02/23 01:21:40;;;;;;;;;;;;;;;23.83;32.62;94985.94;5039417;28;1488;-72
2023/02/23 01:24:06;;;;;;;;;;;;;;;23.79;32.93;94979.38;5052591;28;1242;-71
2023/02/23 01:26:35;;;;;;;;;;;;;;;23.77;32.81;94982.28;5050597;28;1402;-71
2023/02/23 01:29:02;;;;;;;;;;;;;;;23.76;32.80;94979.81;5050072;28;1969;-72
2023/02/23 01:31:28;;;;;;;;;;;;;;;23.74;33.05;94985.44;5053523;28;1416;-71
2023/02/23 01:33:54;;;;;;;;;;;;;;;23.78;32.83;94988.47;5042131;28;1235;-72
2023/02/23 01:36:20;;;;;;;;;;;;;;;23.83;33.09;94980.56;5052360;28;1251;-72
2023/02/23 01:38:46;;;;;;;;;;;;;;;23.82;33.03;94983.47;5053476;28;1483;-73
2023/02/23 01:41:11;;;;;;;;;;;;;;;23.83;33.16;94982.44;5052113;28;1302;-74
2023/02/23 01:43:54;;;;;;;;;;;;;;;23.88;33.15;94982.56;5051148;28;1503;-75
2023/02/23 01:46:19;;;;;;;;;;;;;;;23.89;32.97;94989.56;5048505;28;1103;-74
2023/02/23 01:48:45;;;;;;;;;;;;;;;23.85;32.96;94983.84;5052398;28;1985;-74
2023/02/23 01:51:11;;;;;;;;;;;;;;;23.97;32.90;94976.66;5053076;28;1154;-74
2023/02/23 01:53:39;;;;;;;;;;;;;;;24.02;32.98;94979.50;5050282;28;1211;-74
2023/02/23 01:56:12;;;;;;;;;;;;;;;24.07;32.76;94983.34;5041519;28;1211;-73
2023/02/23 01:58:38;;;;;;;;;;;;;;;24.04;33.03;94976.56;5051292;28;1485;-74
2023/02/23 02:01:04;;;;;;;;;;;;;;;24.01;32.88;94969.78;5049088;28;1214;-74
2023/02/23 02:03:37;;;;;;;;;;;;;;;24.06;33.03;94973.66;5034222;28;1304;-74
2023/02/23 02:06:04;;;;;;;;;;;;;;;24.01;33.08;94975.16;5033945;28;1377;-74
2023/02/23 02:08:30;;;;;;;;;;;;;;;24.05;33.08;94972.84;5023497;28;1918;-74
2023/02/23 02:10:56;;;;;;;;;;;;;;;24.02;33.08;94973.28;5033591;28;1417;-73
2023/02/23 02:13:28;;;;;;;;;;;;;;;24.04;32.93;94976.56;5032645;28;1498;-73
2023/02/23 02:16:01;;;;;;;;;;;;;;;23.92;33.33;94973.03;5033546;28;829;-73
2023/02/23 02:18:29;;;;;;;;;;;;;;;23.94;33.07;94971.75;5022356;28;1437;-72
2023/02/23 02:20:55;;;;;;;;;;;;;;;23.88;33.27;94967.31;5032168;28;1180;-73
2023/02/23 02:23:30;;;;;;;;;;;;;;;23.87;33.17;94970.22;5032392;28;1432;-73
2023/02/23 02:26:24;;;;;;;;;;;;;;;23.91;33.38;94977.59;5031694;28;1500;-73
2023/02/23 02:28:50;;;;;;;;;;;;;;;23.83;33.65;94969.03;5024152;28;1961;-73
2023/02/23 02:31:35;;;;;;;;;;;;;;;23.84;33.61;94973.34;5023829;28;1258;-73
2023/02/23 02:34:18;;;;;;;;;;;;;;;23.81;33.62;94981.84;5019328;28;1413;-73
2023/02/23 02:36:58;;;;;;;;;;;;;;;23.83;33.63;94977.09;5032769;28;1205;-73
2023/02/23 02:39:35;;;;;;;;;;;;;;;23.76;33.64;94977.16;5032017;28;1492;-73
2023/02/23 02:42:09;;;;;;;;;;;;;;;23.79;33.49;94979.38;5020638;28;1258;-74
2023/02/23 02:44:48;;;;;;;;;;;;;;;23.78;33.52;94980.44;5031068;28;1476;-73
2023/02/23 02:47:40;;;;;;;;;;;;;;;23.76;33.79;94974.47;5030441;28;1364;-73
2023/02/23 02:50:08;;;;;;;;;;;;;;;23.83;33.66;94963.69;5026603;28;1323;-73
2023/02/23 02:52:39;;;;;;;;;;;;;;;23.75;33.90;94970.97;5022081;28;1236;-73
2023/02/23 02:55:11;;;;;;;;;;;;;;;23.73;33.74;94973.06;5031308;28;1254;-73
2023/02/23 02:57:37;;;;;;;;;;;;;;;23.72;33.98;94973.31;5029469;28;1477;-73
2023/02/23 04:18:39;;;;;;;;;;;;;;;20.54;30.14;95008.94;5029328;28;1154;-72
2023/02/23 04:21:05;;;;;;;;;;;;;;;20.37;30.04;95009.28;5033658;28;1472;-73
2023/02/23 04:23:31;;;;;;;;;;;;;;;20.49;29.91;95014.00;5026710;28;1229;-73
2023/02/23 04:25:57;;;;;;;;;;;;;;;20.41;29.82;95007.88;5033018;28;1188;-74
2023/02/23 04:28:23;;;;;;;;;;;;;;;20.34;30.45;95006.22;5034701;28;1890;-70
2023/02/23 04:30:48;;;;;;;;;;;;;;;20.35;28.48;95000.69;5034061;28;1235;-71
2023/02/23 04:33:14;;;;;;;;;;;;;;;20.04;28.48;95008.44;5031955;28;1269;-71
2023/02/23 04:35:39;;;;;;;;;;;;;;;19.79;28.51;95010.84;5022292;28;1308;-71
2023/02/23 04:38:05;;;;;;;;;;;;;;;19.68;28.64;95012.22;5032608;28;1100;-73
2023/02/23 04:40:30;;;;;;;;;;;;;;;19.72;28.64;95011.66;5032919;28;1409;-72
2023/02/23 04:42:55;;;;;;;;;;;;;;;20.08;29.60;95015.00;5032570;28;1209;-71
2023/02/23 04:45:22;;;;;;;;;;;;;;;20.69;27.81;95014.03;5030017;28;1379;-69
2023/02/23 04:47:47;;;;;;;;;;;;;;;20.57;28.50;95009.31;5021661;28;1931;-72
2023/02/23 04:50:13;;;;;;;;;;;;;;;20.99;29.25;95001.91;5032149;28;1309;-71
2023/02/23 04:52:38;;;;;;;;;;;;;;;21.41;29.07;95005.13;5033747;28;1294;-71
2023/02/23 04:55:05;;;;;;;;;;;;;;;21.72;29.19;95000.91;5032489;28;1155;-71
2023/02/23 04:57:31;;;;;;;;;;;;;;;21.91;29.25;95004.47;5023151;28;1155;-71
2023/02/23 04:59:56;;;;;;;;;;;;;;;22.01;29.10;95008.34;5031081;28;1395;-71
2023/02/23 05:02:22;;;;;;;;;;;;;;;22.10;29.15;95011.56;5032725;28;1376;-71
2023/02/23 05:04:48;;;;;;;;;;;;;;;22.16;29.27;95020.56;5032803;28;1280;-71
2023/02/23 05:07:13;;;;;;;;;;;;;;;22.23;29.30;95014.19;5029216;28;1170;-71
2023/02/23 05:09:38;;;;;;;;;;;;;;;22.29;29.41;95011.69;5024319;28;1960;-71
2023/02/23 05:12:04;;;;;;;;;;;;;;;22.32;29.20;95014.75;5033544;28;1385;-71
2023/02/23 05:14:29;;;;;;;;;;;;;;;22.35;29.38;95013.50;5032910;28;1128;-71
2023/02/23 05:16:54;;;;;;;;;;;;;;;22.37;29.67;95008.75;5050074;28;1288;-71
2023/02/23 05:19:19;;;;;;;;;;;;;;;22.43;29.40;95013.25;5034490;28;872;-70
2023/02/23 05:21:45;;;;;;;;;;;;;;;22.46;29.65;95012.81;5024697;28;1111;-71
2023/02/23 05:24:10;;;;;;;;;;;;;;;22.48;29.54;95020.59;5034587;28;930;-71
2023/02/23 05:26:35;;;;;;;;;;;;;;;22.50;29.70;95024.69;5033793;28;784;-71
2023/02/23 05:29:01;;;;;;;;;;;;;;;22.52;29.34;95025.31;5034279;28;1967;-71
2023/02/23 05:31:27;;;;;;;;;;;;;;;22.54;29.47;95025.06;5023552;28;1486;-71
2023/02/23 05:33:52;;;;;;;;;;;;;;;;;;5011229;28;1040;-71
2023/02/23 05:36:18;;;;;;;;;;;;;;;22.60;29.64;95029.56;5029704;28;1204;-71
2023/02/23 05:38:44;;;;;;;;;;;;;;;22.59;29.56;95034.06;5014332;28;797;-72
2023/02/23 05:41:14;;;;;;;;;;;;;;;22.65;29.69;95038.59;5014365;28;979;-71
2023/02/23 05:43:39;;;;;;;;;;;;;;;22.65;29.58;95033.22;5004392;28;1070;-71
2023/02/23 05:46:11;;;;;;;;;;;;;;;22.66;29.63;95042.88;5014423;28;944;-71
2023/02/23 05:48:37;;;;;;;;;;;;;;;22.68;29.53;95042.66;5013956;28;1962;-70
2023/02/23 05:51:03;;;;;;;;;;;;;;;22.70;29.79;95047.78;5014082;28;936;-71
2023/02/23 05:53:28;;;;;;;;;;;;;;;22.71;29.63;95046.75;5012991;28;876;-71
2023/02/23 05:55:54;;;;;;;;;;;;;;;22.73;29.57;95056.19;5020801;28;1200;-71
2023/02/23 05:58:19;;;;;;;;;;;;;;;22.75;29.61;95054.13;5014239;28;879;-70
2023/02/23 06:00:44;;;;;;;;;;;;;;;22.78;29.54;95055.56;5014258;28;877;-70
2023/02/23 06:03:09;;;;;;;;;;;;;;;22.78;29.69;95059.03;5013747;28;1240;-71
2023/02/23 06:05:35;;;;;;;;;;;;;;;22.79;29.63;95063.34;5006316;28;1175;-70
2023/02/23 06:08:00;;;;;;;;;;;;;;;22.81;29.70;95057.78;5027004;28;1918;-70
2023/02/23 06:10:25;;;;;;;;;;;;;;;22.84;29.66;95065.38;5013881;28;809;-70
2023/02/23 06:12:51;;;;;;;;;;;;;;;22.85;29.64;95064.31;5012810;28;1329;-70
2023/02/23 06:15:17;;;;;;;;;;;;;;;22.86;29.79;95071.34;5014117;28;839;-70
2023/02/23 06:17:42;;;;;;;;;;;;;;;22.86;29.52;95066.78;5004076;28;1046;-71
2023/02/23 06:20:08;;;;;;;;;;;;;;;22.89;29.44;95073.56;5013970;28;865;-70
2023/02/23 06:22:33;;;;;;;;;;;;;;;22.91;29.52;95074.19;5013662;28;876;-71
2023/02/23 06:24:58;;;;;;;;;;;;;;;22.95;29.53;95077.22;5013737;28;868;-71
2023/02/23 06:27:24;;;;;;;;;;;;;;;22.99;29.34;95071.22;5013324;28;947;-71
2023/02/23 06:29:49;;;;;;;;;;;;;;;23.03;29.30;95077.81;5003510;28;1952;-71
2023/02/23 06:32:15;;;;;;;;;;;;;;;23.07;29.30;95081.66;5013567;28;970;-71
2023/02/23 06:34:40;;;;;;;;;;;;;;;23.11;29.27;95082.06;5013556;28;951;-71
2023/02/23 06:37:05;;;;;;;;;;;;;;;23.15;29.35;95085.94;5013847;28;817;-70
2023/02/23 06:39:31;;;;;;;;;;;;;;;23.18;29.33;95084.66;5007584;28;1063;-70
2023/02/23 06:41:56;;;;;;;;;;;;;;;23.19;29.23;95080.94;5008494;28;1026;-71
2023/02/23 06:44:22;;;;;;;;;;;;;;;23.22;29.13;95086.66;5013510;28;861;-71
2023/02/23 06:46:47;;;;;;;;;;;;;;;23.25;29.09;95080.91;5012143;28;1319;-70
2023/02/23 06:49:12;;;;;;;;;;;;;;;23.26;28.98;95082.53;5013328;28;1951;-71
2023/02/23 06:51:37;;;;;;;;;;;;;;;23.29;28.98;95091.97;5018781;28;1270;-70
2023/02/23 06:54:03;;;;;;;;;;;;;;;23.31;29.09;95084.56;5013237;28;900;-70
2023/02/23 06:56:28;;;;;;;;;;;;;;;23.33;28.95;95087.81;5013290;28;840;-71
2023/02/23 06:58:53;;;;;;;;;;;;;;;23.34;28.81;95092.16;5013371;28;829;-70
2023/02/23 07:01:19;;;;;;;;;;;;;;;23.36;29.10;95092.72;5013035;28;1193;-70
2023/02/23 07:03:45;;;;;;;;;;;;;;;23.38;28.97;95090.66;5001983;28;1285;-70
2023/02/23 07:06:10;;;;;;;;;;;;;;;23.40;29.08;95085.09;5012932;28;884;-70
2023/02/23 07:08:35;;;;;;;;;;;;;;;23.41;28.99;95090.22;5013340;28;1906;-70
2023/02/23 07:11:05;;;;;;;;;;;;;;;23.43;28.83;95082.78;5013058;28;802;-71
2023/02/23 07:13:31;;;;;;;;;;;;;;;23.45;28.82;95085.22;5007538;28;1307;-71
2023/02/23 07:15:56;;;;;;;;;;;;;;;23.46;28.77;95085.00;5008234;28;972;-71
2023/02/23 07:18:21;;;;;;;;;;;;;;;23.48;28.92;95085.63;5012968;28;920;-71
2023/02/23 07:20:47;;;;;;;;;;;;;;;23.50;28.71;95088.06;5013613;28;876;-71
2023/02/23 07:23:12;;;;;;;;;;;;;;;23.55;28.64;95093.56;5013598;28;837;-71
2023/02/23 07:25:38;;;;;;;;;;;;;;;23.58;28.77;95087.75;5018618;28;1309;-71
2023/02/23 07:28:03;;;;;;;;;;;;;;;23.62;28.72;95093.50;5027747;28;1953;-71
2023/02/23 07:30:28;;;;;;;;;;;;;;;23.62;28.80;95091.63;5013079;28;900;-71
2023/02/23 07:32:54;;;;;;;;;;;;;;;23.66;28.38;95087.47;5013099;28;934;-71
2023/02/23 07:35:19;;;;;;;;;;;;;;;23.70;28.52;95087.84;5011984;28;1362;-70
2023/02/23 07:37:44;;;;;;;;;;;;;;;23.71;28.38;95090.34;5003500;28;1135;-71
2023/02/23 07:40:10;;;;;;;;;;;;;;;23.72;28.80;95077.75;5013132;28;864;-71
2023/02/23 07:42:35;;;;;;;;;;;;;;;23.73;28.34;95082.06;5013007;28;1050;-72
2023/02/23 07:45:01;;;;;;;;;;;;;;;23.76;28.52;95082.47;5013287;28;873;-71
2023/02/23 07:47:30;;;;;;;;;;;;;;;23.79;28.29;95084.69;5008244;28;1145;-71
2023/02/23 07:49:59;;;;;;;;;;;;;;;23.79;28.40;95076.66;5007541;28;1887;-71
2023/02/23 07:52:24;;;;;;;;;;;;;;;23.81;28.30;95072.91;5015272;28;1281;-71
2023/02/23 07:54:50;;;;;;;;;;;;;;;23.84;28.44;95072.47;5016352;28;876;-71
2023/02/23 07:57:15;;;;;;;;;;;;;;;23.86;28.37;95078.44;5016864;28;853;-71
2023/02/23 07:59:40;;;;;;;;;;;;;;;23.87;28.49;95072.84;5006739;28;1056;-71
2023/02/23 08:02:06;;;;;;;;;;;;;;;23.87;28.57;95070.16;5016062;28;1201;-71
2023/02/23 08:04:31;;;;;;;;;;;;;;;23.90;28.25;95075.06;5016085;28;916;-71
2023/02/23 08:06:57;;;;;;;;;;;;;;;23.92;28.28;95074.84;5016064;28;923;-71
2023/02/23 08:09:22;;;;;;;;;;;;;;;23.96;28.19;95071.50;5016198;28;1963;-71
2023/02/23 08:11:48;;;;;;;;;;;;;;;23.96;28.35;95070.66;5005434;28;1463;-71
2023/02/23 08:14:13;;;;;;;;;;;;;;;23.98;28.34;95080.13;5016203;28;872;-71
2023/02/23 08:16:38;;;;;;;;;;;;;;;23.96;28.11;95070.66;5015998;28;936;-71
2023/02/23 08:19:03;;;;;;;;;;;;;;;23.97;28.07;95073.13;5015801;28;932;-71
2023/02/23 08:21:29;;;;;;;;;;;;;;;24.01;28.19;95068.94;5011241;28;1056;-71
2023/02/23 08:23:54;;;;;;;;;;;;;;;24.04;28.22;95066.88;5010825;28;1010;-71
2023/02/23 08:26:20;;;;;;;;;;;;;;;24.06;28.13;95073.63;5015987;28;911;-71
2023/02/23 08:28:46;;;;;;;;;;;;;;;24.07;28.08;95067.22;5015984;28;1930;-71
2023/02/23 08:31:12;;;;;;;;;;;;;;;24.06;28.03;95068.28;5015762;28;915;-71
2023/02/23 08:33:38;;;;;;;;;;;;;;;24.07;28.10;95066.41;5006311;28;1134;-70
2023/02/23 08:36:04;;;;;;;;;;;;;;;24.08;28.09;95070.72;5015361;28;1170;-70
2023/02/23 08:38:29;;;;;;;;;;;;;;;24.07;28.06;95072.59;5015743;28;930;-70
2023/02/23 08:40:58;;;;;;;;;;;;;;;24.07;28.22;95069.09;5015795;28;796;-70
2023/02/23 08:43:23;;;;;;;;;;;;;;;24.08;28.21;95070.72;5015916;28;875;-70
2023/02/23 08:45:48;;;;;;;;;;;;;;;24.08;28.22;95071.56;5005805;28;1036;-70
2023/02/23 08:48:14;;;;;;;;;;;;;;;24.08;28.29;95071.56;5030191;28;1946;-70
2023/02/23 08:50:39;;;;;;;;;;;;;;;24.08;28.12;95068.03;5015588;28;864;-70
2023/02/23 08:53:05;;;;;;;;;;;;;;;24.09;28.19;95067.00;5015303;28;899;-70
2023/02/23 08:55:34;;;;;;;;;;;;;;;24.08;28.30;95066.19;5010835;28;1069;-70
2023/02/23 08:57:59;;;;;;;;;;;;;;;24.07;28.15;95067.22;5010280;28;1055;-70
2023/02/23 09:00:24;;;;;;;;;;;;;;;24.06;28.03;95065.59;5014011;28;1198;-70
2023/02/23 09:02:50;;;;;;;;;;;;;;;24.07;28.10;95066.41;5014139;28;1421;-70
2023/02/23 09:05:15;;;;;;;;;;;;;;;24.07;28.32;95061.06;5015076;28;947;-70
2023/02/23 09:07:43;;;;;;;;;;;;;;;24.08;28.05;95060.00;5005744;28;1973;-70
2023/02/23 09:10:10;;;;;;;;;;;;;;;24.07;28.09;95061.06;5014628;28;1155;-70
2023/02/23 09:12:36;;;;;;;;;;;;;;;24.05;28.10;95053.25;5014832;28;857;-70
2023/02/23 09:15:01;;;;;;;;;;;;;;;24.05;28.14;95055.94;5014803;28;865;-70
2023/02/23 09:17:26;;;;;;;;;;;;;;;24.05;28.22;95058.63;5015238;28;802;-70
2023/02/23 09:19:52;;;;;;;;;;;;;;;24.05;28.14;95055.09;5003826;28;1308;-68
2023/02/23 09:22:17;;;;;;;;;;;;;;;24.04;28.24;95056.97;5015196;28;801;-70
2023/02/23 09:24:42;;;;;;;;;;;;;;;24.04;28.18;95051.59;5014768;28;982;-70
2023/02/23 09:27:11;;;;;;;;;;;;;;;24.03;28.44;95049.97;5014774;28;845;-70
2023/02/23 09:29:40;;;;;;;;;;;;;;;24.04;28.20;95053.47;5009958;28;1898;-70
2023/02/23 09:32:05;;;;;;;;;;;;;;;24.02;28.37;95053.69;5009552;28;1066;-70
2023/02/23 09:34:30;;;;;;;;;;;;;;;24.01;28.22;95052.88;5013642;28;1295;-69
2023/02/23 09:36:56;;;;;;;;;;;;;;;24.01;28.19;95050.19;5014555;28;1010;-70
2023/02/23 09:39:21;;;;;;;;;;;;;;;23.99;28.46;95044.25;5014411;28;861;-71
2023/02/23 09:41:50;;;;;;;;;;;;;;;24.00;28.39;95048.56;5004934;28;1115;-70
2023/02/23 09:44:34;;;;;;;;;;;;;;;24.01;28.16;95049.38;5014410;28;814;-70
2023/02/23 09:47:06;;;;;;;;;;;;;;;23.99;28.24;95046.09;5014117;28;798;-70
2023/02/23 09:49:33;;;;;;;;;;;;;;;23.98;28.21;95047.97;5014040;28;1902;-69
2023/02/23 09:52:00;;;;;;;;;;;;;;;23.98;28.37;95052.50;5014135;28;869;-69
2023/02/23 09:54:28;;;;;;;;;;;;;;;24.01;28.36;95052.06;5019069;28;1306;-70
2023/02/23 09:56:57;;;;;;;;;;;;;;;24.02;28.40;95053.69;5013908;28;909;-70
2023/02/23 09:59:24;;;;;;;;;;;;;;;23.99;28.25;95043.41;5012784;28;1208;-69
2023/02/23 10:01:52;;;;;;;;;;;;;;;23.99;28.46;95041.56;5012241;28;1357;-69
2023/02/23 10:04:36;;;;;;;;;;;;;;;23.99;28.28;95041.56;5003136;28;1303;-70
2023/02/23 10:07:20;;;;;;;;;;;;;;;23.98;28.23;95031.06;5013813;28;798;-70
2023/02/23 10:10:00;;;;;;;;;;;;;;;23.96;28.41;95036.69;5013843;28;1906;-69
2023/02/23 10:12:48;;;;;;;;;;;;;;;23.96;28.27;95038.50;5013737;28;806;-69
2023/02/23 10:15:32;;;;;;;;;;;;;;;23.95;28.44;95026.16;5009332;28;1369;-70
2023/02/23 10:18:06;;;;;;;;;;;;;;;23.93;28.44;95023.69;5012516;28;1138;-69
2023/02/23 10:20:40;;;;;;;;;;;;;;;23.97;28.27;95030.25;5013620;28;805;-69
2023/02/23 10:23:11;;;;;;;;;;;;;;;23.96;28.38;95022.44;5013914;28;919;-70
2023/02/23 10:25:40;;;;;;;;;;;;;;;23.97;28.34;95019.53;5013838;28;888;-69
2023/02/23 10:28:10;;;;;;;;;;;;;;;23.97;28.31;95021.41;5002550;28;1902;-69
2023/02/23 10:30:35;;;;;;;;;;;;;;;23.97;28.41;95016.03;5013604;28;861;-71
2023/02/23 10:33:09;;;;;;;;;;;;;;;24.00;28.43;95004.88;5013627;28;951;-70
2023/02/23 10:35:36;;;;;;;;;;;;;;;23.99;28.40;95004.06;5013510;28;947;-69
2023/02/23 10:38:01;;;;;;;;;;;;;;;23.99;28.55;94996.03;5008318;28;1163;-69
2023/02/23 10:40:28;;;;;;;;;;;;;;;23.97;28.51;95003.47;5023676;28;1247;-69
2023/02/23 10:42:54;;;;;;;;;;;;;;;23.98;28.36;94990.88;5028856;28;1196;-69
2023/02/23 10:45:24;;;;;;;;;;;;;;;23.99;28.49;94998.69;5013495;28;936;-69
2023/02/23 10:47:52;;;;;;;;;;;;;;;23.97;28.33;94992.75;5028526;28;1906;-69
2023/02/23 10:50:18;;;;;;;;;;;;;;;23.95;28.31;94989.47;5018687;28;1184;-69
2023/02/23 10:52:47;;;;;;;;;;;;;;;23.94;28.48;94985.16;5012329;28;1322;-70
2023/02/23 10:55:25;;;;;;;;;;;;;;;23.94;28.39;94982.47;5013357;28;957;-69
2023/02/23 10:58:00;;;;;;;;;;;;;;;23.94;28.34;94979.81;5028669;28;1293;-69
2023/02/23 11:00:29;;;;;;;;;;;;;;;23.93;28.53;94978.16;5008846;28;1096;-69
2023/02/23 11:02:54;;;;;;;;;;;;;;;23.96;28.47;94984.91;5007904;28;1229;-69
2023/02/23 11:05:34;;;;;;;;;;;;;;;23.93;28.36;94975.47;5013320;28;880;-69
2023/02/23 11:08:28;;;;;;;;;;;;;;;23.93;28.39;94970.13;5013319;28;1910;-70
2023/02/23 11:11:07;;;;;;;;;;;;;;;23.93;28.58;94964.75;5011997;28;1260;-69
2023/02/23 11:13:33;;;;;;;;;;;;;;;23.93;28.41;94963.94;5003330;28;1579;-70
2023/02/23 11:16:09;;;;;;;;;;;;;;;23.92;28.56;94963.13;5013062;28;883;-70
2023/02/23 11:18:35;;;;;;;;;;;;;;;23.92;28.58;94957.78;5013316;28;833;-69
2023/02/23 11:21:00;;;;;;;;;;;;;;;23.95;28.33;94951.94;5013310;28;853;-70
2023/02/23 11:23:28;;;;;;;;;;;;;;;23.93;28.38;94956.72;5023450;28;1228;-70
2023/02/23 11:26:01;;;;;;;;;;;;;;;23.92;28.29;94956.97;5010671;28;1028;-70
2023/02/23 11:28:29;;;;;;;;;;;;;;;23.92;28.72;94951.59;5032158;28;1902;-70
2023/02/23 11:30:56;;;;;;;;;;;;;;;23.92;28.53;94952.41;5017032;28;912;-71
2023/02/23 11:33:25;;;;;;;;;;;;;;;23.92;28.47;94949.72;5016998;28;892;-71
2023/02/23 11:36:13;;;;;;;;;;;;;;;23.94;28.62;94950.31;5022182;28;1211;-71
2023/02/23 11:38:38;;;;;;;;;;;;;;;23.93;28.42;94939.81;5016963;28;856;-68
2023/02/23 11:41:06;;;;;;;;;;;;;;;23.93;28.57;94945.19;5016845;28;881;-71
2023/02/23 11:43:31;;;;;;;;;;;;;;;23.92;28.42;94936.34;5031998;28;1247;-69
2023/02/23 11:45:58;;;;;;;;;;;;;;;23.91;28.45;94932.03;5011916;28;1084;-70
2023/02/23 11:48:34;;;;;;;;;;;;;;;23.93;28.44;94929.09;5011515;28;1959;-71
2023/02/23 11:50:59;;;;;;;;;;;;;;;23.90;28.50;94933.06;5016745;28;817;-69
2023/02/23 11:53:33;;;;;;;;;;;;;;;23.92;28.47;94924.81;5016485;28;801;-69
2023/02/23 11:56:01;;;;;;;;;;;;;;;23.89;28.31;94928.75;5016357;28;825;-69
2023/02/23 11:58:34;;;;;;;;;;;;;;;23.88;28.52;94924.44;5006528;28;1109;-69
2023/02/23 12:01:01;;;;;;;;;;;;;;;23.91;28.78;94924.00;5016441;28;852;-69
2023/02/23 12:03:29;;;;;;;;;;;;;;;23.92;28.68;94922.13;5016082;28;1194;-69
2023/02/23 12:05:59;;;;;;;;;;;;;;;23.90;28.49;94916.97;5031233;28;1295;-69
2023/02/23 12:08:27;;;;;;;;;;;;;;;23.89;28.66;94923.41;5030409;28;1914;-69
2023/02/23 12:10:54;;;;;;;;;;;;;;;23.92;28.45;94919.44;5008838;28;1195;-69
2023/02/23 12:13:30;;;;;;;;;;;;;;;23.91;28.41;94915.97;5016293;28;839;-69
2023/02/23 12:15:59;;;;;;;;;;;;;;;23.91;28.67;94913.28;5016381;28;800;-69
2023/02/23 12:18:42;;;;;;;;;;;;;;;23.88;28.61;94912.91;5016275;28;788;-69
2023/02/23 12:21:17;;;;;;;;;;;;;;;23.87;28.60;94912.09;5021300;28;1325;-69
2023/02/23 12:23:45;;;;;;;;;;;;;;;23.87;28.76;94903.22;5031061;28;1491;-69
2023/02/23 12:26:16;;;;;;;;;;;;;;;23.87;28.44;94913.94;5015992;28;857;-69
2023/02/23 12:28:41;;;;;;;;;;;;;;;23.87;28.44;94912.09;5015997;28;1961;-69
2023/02/23 12:31:24;;;;;;;;;;;;;;;23.88;28.64;94905.69;5015379;28;900;-69
2023/02/23 12:34:09;;;;;;;;;;;;;;;23.87;28.67;94900.56;5025881;28;1243;-69
2023/02/23 12:36:38;;;;;;;;;;;;;;;23.85;28.65;94894.59;5030844;28;1420;-69
2023/02/23 12:39:16;;;;;;;;;;;;;;;23.85;28.58;94898.13;5015617;28;877;-69
2023/02/23 12:41:54;;;;;;;;;;;;;;;23.85;28.82;94908.84;5015565;28;892;-69
2023/02/23 12:44:19;;;;;;;;;;;;;;;23.84;28.55;94896.47;5006051;28;1214;-69
2023/02/23 12:46:47;;;;;;;;;;;;;;;23.85;28.66;94897.28;5015858;28;802;-69
2023/02/23 12:49:31;;;;;;;;;;;;;;;23.86;28.74;94899.75;5030859;28;1971;-69
2023/02/23 12:52:24;;;;;;;;;;;;;;;23.85;28.60;94898.13;5030796;28;1275;-69
2023/02/23 12:54:50;;;;;;;;;;;;;;;23.83;28.65;94908.25;5006059;28;1162;-69
2023/02/23 12:57:23;;;;;;;;;;;;;;;23.88;28.71;94896.81;5015470;28;1128;-70
2023/02/23 13:00:22;;;;;;;;;;;;;;;23.88;28.66;94900.34;5015763;28;999;-69
2023/02/23 13:03:08;;;;;;;;;;;;;;;23.88;28.56;94894.16;5014902;28;1340;-69
2023/02/23 13:05:47;;;;;;;;;;;;;;;23.86;28.65;94889.03;5010386;28;1162;-69
2023/02/23 13:08:13;;;;;;;;;;;;;;;23.87;28.66;94884.47;5025366;28;1910;-69
2023/02/23 13:10:45;;;;;;;;;;;;;;;23.86;28.78;94882.84;5015118;28;932;-69
2023/02/23 13:13:29;;;;;;;;;;;;;;;23.84;28.81;94883.06;5014828;28;785;-69
2023/02/23 13:16:10;;;;;;;;;;;;;;;23.83;28.72;94881.44;5030273;28;1313;-69
2023/02/23 13:18:48;;;;;;;;;;;;;;;23.81;28.70;94886.22;5003900;28;1190;-69
2023/02/23 13:21:21;;;;;;;;;;;;;;;23.84;28.69;94877.72;5022305;28;1298;-69
2023/02/23 13:24:03;;;;;;;;;;;;;;;23.85;28.81;94882.06;5026110;28;912;-69
2023/02/23 13:26:41;;;;;;;;;;;;;;;23.84;28.62;94880.41;5033304;28;1292;-68
2023/02/23 13:29:28;;;;;;;;;;;;;;;23.81;28.85;94880.84;5023238;28;1882;-71
2023/02/23 13:31:53;;;;;;;;;;;;;;;23.79;28.10;94882.94;5034706;28;818;-69
2023/02/23 13:34:30;;;;;;;;;;;;;;;23.72;28.23;94877.69;5034938;28;848;-70
2023/02/23 13:36:57;;;;;;;;;;;;;;;23.48;28.89;94882.13;5034678;28;805;-71
2023/02/23 13:39:32;;;;;;;;;;;;;;;23.33;28.04;94860.28;5029566;28;1212;-70
2023/02/23 13:42:00;;;;;;;;;;;;;;;23.36;28.41;94878.56;5029157;28;1094;-70
2023/02/23 13:44:45;;;;;;;;;;;;;;;23.30;28.44;94880.28;5034497;28;919;-70
2023/02/23 13:47:29;;;;;;;;;;;;;;;23.29;28.16;94875.16;5032986;28;1192;-70
2023/02/23 13:50:02;;;;;;;;;;;;;;;23.31;28.26;94881.13;5034233;28;1879;-70
2023/02/23 13:52:36;;;;;;;;;;;;;;;23.26;28.26;94876.44;5024468;28;1169;-71
2023/02/23 13:55:02;;;;;;;;;;;;;;;23.28;28.24;94878.88;5032859;28;1220;-71
2023/02/23 13:57:29;;;;;;;;;;;;;;;23.27;28.02;94877.25;5034142;28;805;-71
2023/02/23 13:59:55;;;;;;;;;;;;;;;23.26;28.07;94886.34;5032848;28;1348;-72
2023/02/23 14:02:31;;;;;;;;;;;;;;;23.31;28.19;94887.28;5020034;28;1340;-70
2023/02/23 14:05:00;;;;;;;;;;;;;;;23.25;27.92;94879.31;5030235;28;1135;-70
2023/02/23 14:07:28;;;;;;;;;;;;;;;23.21;27.90;94880.81;5032624;28;1179;-70
2023/02/23 14:09:54;;;;;;;;;;;;;;;23.24;27.58;94886.53;5034178;28;1970;-70
2023/02/23 14:12:33;;;;;;;;;;;;;;;23.12;27.93;94886.47;5033973;28;813;-70
2023/02/23 14:15:21;;;;;;;;;;;;;;;23.12;27.91;94883.81;5024030;28;1145;-70
2023/02/23 14:17:58;;;;;;;;;;;;;;;23.15;28.04;94881.72;5033436;28;1175;-72
2023/02/23 14:20:38;;;;;;;;;;;;;;;23.19;27.62;94882.91;5033669;28;829;-70
2023/02/23 14:23:19;;;;;;;;;;;;;;;23.15;27.49;94897.78;5033877;28;904;-70
2023/02/23 14:26:14;;;;;;;;;;;;;;;23.11;27.35;94903.59;5023978;28;1258;-70
2023/02/23 14:29:09;;;;;;;;;;;;;;;23.05;27.35;94896.47;4980271;28;1894;-71